地図

経路データ

SID SEASON NUMBER BASIN SUBBASIN NAME ISO_TIME NATURE LAT LON WMO_WIND WMO_PRES WMO_AGENCY TRACK_TYPE DIST2LAND LANDFALL IFLAG USA_AGENCY USA_ATCF_ID USA_LAT USA_LON USA_RECORD USA_STATUS USA_WIND USA_PRES USA_SSHS USA_R34_NE USA_R34_SE USA_R34_SW USA_R34_NW USA_R50_NE USA_R50_SE USA_R50_SW USA_R50_NW USA_R64_NE USA_R64_SE USA_R64_SW USA_R64_NW USA_POCI USA_ROCI USA_RMW USA_EYE TOKYO_LAT TOKYO_LON TOKYO_GRADE TOKYO_WIND TOKYO_PRES TOKYO_R50_DIR TOKYO_R50_LONG TOKYO_R50_SHORT TOKYO_R30_DIR TOKYO_R30_LONG TOKYO_R30_SHORT TOKYO_LAND CMA_LAT CMA_LON CMA_CAT CMA_WIND CMA_PRES HKO_LAT HKO_LON HKO_CAT HKO_WIND HKO_PRES NEWDELHI_LAT NEWDELHI_LON NEWDELHI_GRADE NEWDELHI_WIND NEWDELHI_PRES NEWDELHI_CI NEWDELHI_DP NEWDELHI_POCI REUNION_LAT REUNION_LON REUNION_TYPE REUNION_WIND REUNION_PRES REUNION_TNUM REUNION_CI REUNION_RMW REUNION_R34_NE REUNION_R34_SE REUNION_R34_SW REUNION_R34_NW REUNION_R50_NE REUNION_R50_SE REUNION_R50_SW REUNION_R50_NW REUNION_R64_NE REUNION_R64_SE REUNION_R64_SW REUNION_R64_NW BOM_LAT BOM_LON BOM_TYPE BOM_WIND BOM_PRES BOM_TNUM BOM_CI BOM_RMW BOM_R34_NE BOM_R34_SE BOM_R34_SW BOM_R34_NW BOM_R50_NE BOM_R50_SE BOM_R50_SW BOM_R50_NW BOM_R64_NE BOM_R64_SE BOM_R64_SW BOM_R64_NW BOM_ROCI BOM_POCI BOM_EYE BOM_POS_METHOD BOM_PRES_METHOD NADI_LAT NADI_LON NADI_CAT NADI_WIND NADI_PRES WELLINGTON_LAT WELLINGTON_LON WELLINGTON_WIND WELLINGTON_PRES DS824_LAT DS824_LON DS824_STAGE DS824_WIND DS824_PRES TD9636_LAT TD9636_LON TD9636_STAGE TD9636_WIND TD9636_PRES TD9635_LAT TD9635_LON TD9635_WIND TD9635_PRES TD9635_ROCI NEUMANN_LAT NEUMANN_LON NEUMANN_CLASS NEUMANN_WIND NEUMANN_PRES MLC_LAT MLC_LON MLC_CLASS MLC_WIND MLC_PRES USA_GUST BOM_GUST BOM_GUST_PER REUNION_GUST REUNION_GUST_PER USA_SEAHGT USA_SEARAD_NE USA_SEARAD_SE USA_SEARAD_SW USA_SEARAD_NW STORM_SPEED STORM_DIR
1994200N13235 1994 50 EP MM FABIO 1994-07-19 00:00:00 TS 13.1000 -125.100 25 1011 hurdat_epa main 1882 1882 O_____________ hurdat_epa EP061994 13.1000 -125.100 TD 25 1011 -1 9 281
1994200N13235 1994 50 EP MM FABIO 1994-07-19 03:00:00 TS 13.1801 -125.538 main 1905 1905 P_____________ EP061994 13.1801 -125.538 TD 27 1009 -1 9 283
1994200N13235 1994 50 EP MM FABIO 1994-07-19 06:00:00 TS 13.3000 -126.000 30 1008 hurdat_epa main 1935 1935 O_____________ hurdat_epa EP061994 13.3000 -126.000 TD 30 1008 -1 10 288
1994200N13235 1994 50 EP MM FABIO 1994-07-19 09:00:00 TS 13.4850 -126.500 main 1960 1960 P_____________ EP061994 13.4850 -126.500 TD 32 1006 -1 11 292
1994200N13235 1994 50 EP MM FABIO 1994-07-19 12:00:00 TS 13.7000 -127.000 35 1005 hurdat_epa main 1985 1985 O_____________ hurdat_epa EP061994 13.7000 -127.000 TS 35 1005 0 10 294
1994200N13235 1994 50 EP MM FABIO 1994-07-19 15:00:00 TS 13.8923 -127.450 main 2012 2011 P_____________ EP061994 13.8923 -127.450 TS 37 1003 0 10 295
1994200N13235 1994 50 EP MM FABIO 1994-07-19 18:00:00 TS 14.1000 -127.900 40 1002 hurdat_epa main 2023 2021 O_____________ hurdat_epa EP061994 14.1000 -127.900 TS 40 1002 0 10 297
1994200N13235 1994 50 EP MM FABIO 1994-07-19 21:00:00 TS 14.3574 -128.385 main 2032 2032 P_____________ EP061994 14.3574 -128.385 TS 37 1002 0 11 297
1994200N13235 1994 50 EP MM FABIO 1994-07-20 00:00:00 TS 14.6000 -128.900 35 1003 hurdat_epa main 2051 2050 O_____________ hurdat_epa EP061994 14.6000 -128.900 TS 35 1003 0 11 291
1994200N13235 1994 50 EP MM FABIO 1994-07-20 03:00:00 TS 14.7574 -129.443 main 2071 2071 P_____________ EP061994 14.7574 -129.443 TS 35 1003 0 11 286
1994200N13235 1994 50 EP MM FABIO 1994-07-20 06:00:00 TS 14.9000 -130.000 35 1004 hurdat_epa main 2108 2108 O_____________ hurdat_epa EP061994 14.9000 -130.000 TS 35 1004 0 11 288
1994200N13235 1994 50 EP MM FABIO 1994-07-20 09:00:00 TS 15.1073 -130.542 main 2130 2130 P_____________ EP061994 15.1073 -130.542 TS 35 1004 0 11 291
1994200N13235 1994 50 EP MM FABIO 1994-07-20 12:00:00 TS 15.3000 -131.100 35 1005 hurdat_epa main 2162 2162 O_____________ hurdat_epa EP061994 15.3000 -131.100 TS 35 1005 0 12 285
1994200N13235 1994 50 EP MM FABIO 1994-07-20 15:00:00 TS 15.4150 -131.700 main 2202 2202 P_____________ EP061994 15.4150 -131.700 TS 32 1006 -1 12 280
1994200N13235 1994 50 EP MM FABIO 1994-07-20 18:00:00 TS 15.5000 -132.300 30 1007 hurdat_epa main 2244 2244 O_____________ hurdat_epa EP061994 15.5000 -132.300 TD 30 1007 -1 11 280
1994200N13235 1994 50 EP MM FABIO 1994-07-20 21:00:00 TS 15.6072 -132.843 main 2278 2278 P_____________ EP061994 15.6072 -132.843 TD 30 1007 -1 11 281
1994200N13235 1994 50 EP MM FABIO 1994-07-21 00:00:00 TS 15.7000 -133.400 30 1008 hurdat_epa main 2306 2241 O_____________ hurdat_epa EP061994 15.7000 -133.400 TD 30 1008 -1 12 278
1994200N13235 1994 50 EP MM FABIO 1994-07-21 03:00:00 TS 15.7649 -134.035 main 2241 2168 P_____________ EP061994 15.7649 -134.035 TD 30 1008 -1 13 275
1994200N13235 1994 50 EP MM FABIO 1994-07-21 06:00:00 TS 15.8000 -134.700 30 1008 hurdat_epa main 2168 2106 O_____________ hurdat_epa EP061994 15.8000 -134.700 TD 30 1008 -1 13 271
1994200N13235 1994 50 EP MM FABIO 1994-07-21 09:00:00 TS 15.7922 -135.335 main 2106 2033 P_____________ EP061994 15.7922 -135.335 TD 27 1008 -1 13 270
1994200N13235 1994 50 EP MM FABIO 1994-07-21 12:00:00 TS 15.8000 -136.000 25 1008 hurdat_epa main 2033 1958 O_____________ hurdat_epa EP061994 15.8000 -136.000 TD 25 1008 -1 13 274
1994200N13235 1994 50 EP MM FABIO 1994-07-21 15:00:00 TS 15.8848 -136.727 main 1958 1872 P_____________ EP061994 15.8848 -136.727 TD 25 1008 -1 15 278
1994200N13235 1994 50 EP MM FABIO 1994-07-21 18:00:00 TS 16.0000 -137.500 25 1008 hurdat_epa main 1872 1797 O_____________ hurdat_epa EP061994 16.0000 -137.500 TD 25 1008 -1 15 278
1994200N13235 1994 50 EP MM FABIO 1994-07-21 21:00:00 TS 16.0921 -138.278 main 1787 1701 P_____________ EP061994 16.0921 -138.278 TD 25 1008 -1 16 277
1994200N13235 1994 50 EP MM FABIO 1994-07-22 00:00:00 TS 16.2000 -139.100 25 1008 hurdat_epa main 1701 1616 O_____________ hurdat_epa EP061994 16.2000 -139.100 TD 25 1008 -1 17 279
1994200N13235 1994 50 EP MM FABIO 1994-07-22 03:00:00 TS 16.3574 -139.992 main 1603 1517 P_____________ EP061994 16.3574 -139.992 TD 25 1008 -1 18 281
1994200N13235 1994 50 EP CP FABIO 1994-07-22 06:00:00 TS 16.5231 -140.892 25 1008 hurdat_epa main 1507 1422 O_____________ hurdat_epa EP061994 16.5000 -140.900 TD 25 1008 -1 17 278
1994200N13235 1994 50 EP CP FABIO 1994-07-22 09:00:00 TS 16.6039 -141.737 main 1422 1340 P_____________ EP061994 16.5720 -141.750 TD 25 1008 -1 16 274
1994200N13235 1994 50 EP CP FABIO 1994-07-22 12:00:00 TS 16.6400 -142.580 25 1008 hurdat_epa main 1329 1244 O_____________ hurdat_epa EP061994 16.6000 -142.600 TD 25 1008 -1 16 272
1994200N13235 1994 50 EP CP FABIO 1994-07-22 15:00:00 TS 16.6589 -143.442 main 1244 1153 P_____________ EP061994 16.6070 -143.478 TD 25 1008 -1 17 270
1994200N13235 1994 50 EP CP FABIO 1994-07-22 18:00:00 TS 16.6500 -144.350 25 1008 hurdat_epa main 1142 1055 O_____________ hurdat_epa EP061994 16.6000 -144.400 TD 25 1008 -1 18 269
1994200N13235 1994 50 EP CP FABIO 1994-07-22 21:00:00 TS 16.6230 -145.332 main 1055 955 P_____________ EP061994 16.5999 -145.400 TD 25 1008 -1 19 268
1994200N13235 1994 50 EP CP FABIO 1994-07-23 00:00:00 TS 16.6000 -146.325 25 1008 hurdat_epa main 955 866 O_____________ hurdat_epa EP061994 16.6000 -146.400 TD 25 1008 -1 19 269
1994200N13235 1994 50 EP CP FABIO 1994-07-23 03:00:00 TS 16.6008 -147.265 main 856 779 P_____________ EP061994 16.5919 -147.315 TD 25 1008 -1 18 271
1994200N13235 1994 50 EP CP FABIO 1994-07-23 06:00:00 TS 16.6250 -148.175 25 1008 hurdat_epa main 769 688 O_____________ hurdat_epa EP061994 16.6000 -148.200 TD 25 1008 -1 17 273
1994200N13235 1994 50 EP CP FABIO 1994-07-23 09:00:00 TS 16.6895 -149.062 main 679 605 P_____________ EP061994 16.6646 -149.100 TD 25 1008 -1 17 273
1994200N13235 1994 50 EP CP FABIO 1994-07-23 12:00:00 TS 16.7250 -149.950 25 1009 hurdat_epa main 605 533 O_____________ hurdat_epa EP061994 16.7000 -150.000 TD 25 1009 -1 18 268
1994200N13235 1994 50 EP CP FABIO 1994-07-23 15:00:00 TS 16.6262 -150.889 main 524 453 P_____________ EP061994 16.5848 -150.916 TD 25 1009 -1 18 264
1994200N13235 1994 50 EP CP FABIO 1994-07-23 18:00:00 TS 16.5500 -151.800 25 1010 hurdat_epa main 453 394 O_____________ hurdat_epa EP061994 16.5000 -151.800 TD 25 1010 -1 17 270
1994200N13235 1994 50 EP CP FABIO 1994-07-23 21:00:00 TS 16.6260 -152.626 main 394 326 P_____________ EP061994 16.5930 -152.619 TD 25 1010 -1 16 279
1994200N13235 1994 50 EP CP FABIO 1994-07-24 00:00:00 TS 16.8000 -153.400 25 1010 hurdat_epa main 326 O_____________ hurdat_epa EP061994 16.8000 -153.400 TD 25 1010 -1 15 283

IBTrACS Databaseについて

本データベースは、米国NOAAが公開する1842年以降の世界の熱帯低気圧のベストトラックデータアーカイブInternational Best Track Archive for Climate Stewardship (IBTrACS)を、ウェブで閲覧しやすい形式に変換したものです。

最終更新日:2021-10-08